sensor_id;sensor_type;location;lat;lon;timestamp;P1;durP1;ratioP1;P2;durP2;ratioP2
13989;SDS011;7069;52.528;13.316;2022-08-26T00:02:24;12.43;;;8.27;;
13989;SDS011;7069;52.528;13.316;2022-08-26T00:04:50;12.70;;;8.68;;
13989;SDS011;7069;52.528;13.316;2022-08-26T00:07:18;13.43;;;7.47;;
13989;SDS011;7069;52.528;13.316;2022-08-26T00:09:44;10.88;;;8.10;;
13989;SDS011;7069;52.528;13.316;2022-08-26T00:12:11;11.18;;;7.32;;
13989;SDS011;7069;52.528;13.316;2022-08-26T00:14:37;8.57;;;7.28;;
13989;SDS011;7069;52.528;13.316;2022-08-26T00:17:03;11.40;;;7.88;;
13989;SDS011;7069;52.528;13.316;2022-08-26T00:19:30;10.82;;;7.97;;
13989;SDS011;7069;52.528;13.316;2022-08-26T00:21:56;11.07;;;7.63;;
13989;SDS011;7069;52.528;13.316;2022-08-26T00:24:24;13.77;;;8.27;;
13989;SDS011;7069;52.528;13.316;2022-08-26T00:26:50;10.75;;;8.93;;
13989;SDS011;7069;52.528;13.316;2022-08-26T00:29:17;12.15;;;9.75;;
13989;SDS011;7069;52.528;13.316;2022-08-26T00:31:43;12.82;;;9.18;;
13989;SDS011;7069;52.528;13.316;2022-08-26T00:34:09;13.45;;;8.75;;
13989;SDS011;7069;52.528;13.316;2022-08-26T00:36:36;10.77;;;8.07;;
13989;SDS011;7069;52.528;13.316;2022-08-26T00:39:03;14.52;;;8.48;;
13989;SDS011;7069;52.528;13.316;2022-08-26T00:41:32;18.13;;;7.30;;
13989;SDS011;7069;52.528;13.316;2022-08-26T00:43:59;10.60;;;8.50;;
13989;SDS011;7069;52.528;13.316;2022-08-26T00:46:26;10.90;;;8.13;;
13989;SDS011;7069;52.528;13.316;2022-08-26T00:48:56;10.15;;;8.30;;
13989;SDS011;7069;52.528;13.316;2022-08-26T00:51:24;10.80;;;8.30;;
13989;SDS011;7069;52.528;13.316;2022-08-26T00:53:52;10.68;;;7.82;;
13989;SDS011;7069;52.528;13.316;2022-08-26T00:56:20;12.55;;;8.15;;
13989;SDS011;7069;52.528;13.316;2022-08-26T00:58:49;16.20;;;8.65;;
13989;SDS011;7069;52.528;13.316;2022-08-26T01:01:16;8.95;;;8.05;;
13989;SDS011;7069;52.528;13.316;2022-08-26T01:03:43;9.02;;;8.00;;
13989;SDS011;7069;52.528;13.316;2022-08-26T01:06:09;15.30;;;9.63;;
13989;SDS011;7069;52.528;13.316;2022-08-26T01:08:37;10.57;;;8.57;;
13989;SDS011;7069;52.528;13.316;2022-08-26T01:11:03;14.60;;;8.27;;
13989;SDS011;7069;52.528;13.316;2022-08-26T01:13:30;8.93;;;8.02;;
13989;SDS011;7069;52.528;13.316;2022-08-26T01:16:00;12.35;;;8.70;;
13989;SDS011;7069;52.528;13.316;2022-08-26T01:18:27;12.57;;;8.25;;
13989;SDS011;7069;52.528;13.316;2022-08-26T01:20:56;12.25;;;8.63;;
13989;SDS011;7069;52.528;13.316;2022-08-26T01:23:27;15.50;;;10.40;;
13989;SDS011;7069;52.528;13.316;2022-08-26T01:25:54;12.00;;;9.27;;
13989;SDS011;7069;52.528;13.316;2022-08-26T01:28:22;13.23;;;9.40;;
13989;SDS011;7069;52.528;13.316;2022-08-26T01:30:50;11.77;;;8.45;;
13989;SDS011;7069;52.528;13.316;2022-08-26T01:33:19;11.50;;;9.10;;
13989;SDS011;7069;52.528;13.316;2022-08-26T01:35:46;9.73;;;8.18;;
13989;SDS011;7069;52.528;13.316;2022-08-26T01:38:13;10.40;;;9.07;;
13989;SDS011;7069;52.528;13.316;2022-08-26T01:40:41;10.50;;;8.43;;
13989;SDS011;7069;52.528;13.316;2022-08-26T01:43:09;10.88;;;8.90;;
13989;SDS011;7069;52.528;13.316;2022-08-26T01:45:39;10.05;;;8.32;;
13989;SDS011;7069;52.528;13.316;2022-08-26T01:48:06;14.75;;;8.45;;
13989;SDS011;7069;52.528;13.316;2022-08-26T01:50:35;10.80;;;8.45;;
13989;SDS011;7069;52.528;13.316;2022-08-26T01:53:05;14.50;;;8.32;;
13989;SDS011;7069;52.528;13.316;2022-08-26T01:55:32;12.30;;;8.68;;
13989;SDS011;7069;52.528;13.316;2022-08-26T01:58:01;16.42;;;8.75;;
13989;SDS011;7069;52.528;13.316;2022-08-26T02:00:29;13.32;;;8.20;;
13989;SDS011;7069;52.528;13.316;2022-08-26T02:02:56;14.10;;;8.15;;
13989;SDS011;7069;52.528;13.316;2022-08-26T02:05:36;9.85;;;8.95;;
13989;SDS011;7069;52.528;13.316;2022-08-26T02:08:03;15.23;;;9.48;;
13989;SDS011;7069;52.528;13.316;2022-08-26T02:10:30;10.35;;;8.82;;
13989;SDS011;7069;52.528;13.316;2022-08-26T02:12:56;11.10;;;9.02;;
13989;SDS011;7069;52.528;13.316;2022-08-26T02:15:24;11.20;;;8.43;;
13989;SDS011;7069;52.528;13.316;2022-08-26T02:17:50;10.82;;;9.15;;
13989;SDS011;7069;52.528;13.316;2022-08-26T02:20:17;11.82;;;8.43;;
13989;SDS011;7069;52.528;13.316;2022-08-26T02:22:44;12.40;;;8.52;;
13989;SDS011;7069;52.528;13.316;2022-08-26T02:25:13;10.35;;;9.38;;
13989;SDS011;7069;52.528;13.316;2022-08-26T02:27:42;12.80;;;8.73;;
13989;SDS011;7069;52.528;13.316;2022-08-26T02:30:10;9.75;;;8.77;;
13989;SDS011;7069;52.528;13.316;2022-08-26T02:32:39;13.68;;;9.23;;
13989;SDS011;7069;52.528;13.316;2022-08-26T02:35:06;9.18;;;8.23;;
13989;SDS011;7069;52.528;13.316;2022-08-26T02:37:33;16.25;;;10.88;;
13989;SDS011;7069;52.528;13.316;2022-08-26T02:39:59;11.45;;;9.13;;
13989;SDS011;7069;52.528;13.316;2022-08-26T02:42:26;15.43;;;10.88;;
13989;SDS011;7069;52.528;13.316;2022-08-26T02:44:52;11.00;;;9.77;;
13989;SDS011;7069;52.528;13.316;2022-08-26T02:47:18;13.90;;;9.88;;
13989;SDS011;7069;52.528;13.316;2022-08-26T02:49:46;11.15;;;10.05;;
13989;SDS011;7069;52.528;13.316;2022-08-26T02:52:12;11.15;;;10.10;;
13989;SDS011;7069;52.528;13.316;2022-08-26T02:54:39;10.75;;;9.13;;
13989;SDS011;7069;52.528;13.316;2022-08-26T02:57:05;11.57;;;9.27;;
13989;SDS011;7069;52.528;13.316;2022-08-26T02:59:32;12.93;;;8.57;;
13989;SDS011;7069;52.528;13.316;2022-08-26T03:02:00;13.68;;;9.93;;
13989;SDS011;7069;52.528;13.316;2022-08-26T03:04:26;10.05;;;9.02;;
13989;SDS011;7069;52.528;13.316;2022-08-26T03:06:56;9.82;;;8.25;;
13989;SDS011;7069;52.528;13.316;2022-08-26T03:09:22;11.02;;;9.57;;
13989;SDS011;7069;52.528;13.316;2022-08-26T03:11:49;11.00;;;9.27;;
13989;SDS011;7069;52.528;13.316;2022-08-26T03:14:15;15.35;;;9.82;;
13989;SDS011;7069;52.528;13.316;2022-08-26T03:16:42;16.23;;;9.50;;
13989;SDS011;7069;52.528;13.316;2022-08-26T03:19:08;18.58;;;9.95;;
13989;SDS011;7069;52.528;13.316;2022-08-26T03:21:36;11.90;;;9.70;;
13989;SDS011;7069;52.528;13.316;2022-08-26T03:24:04;12.77;;;8.95;;
13989;SDS011;7069;52.528;13.316;2022-08-26T03:26:31;15.52;;;10.35;;
13989;SDS011;7069;52.528;13.316;2022-08-26T03:28:57;13.82;;;9.38;;
13989;SDS011;7069;52.528;13.316;2022-08-26T03:31:41;13.70;;;9.55;;
13989;SDS011;7069;52.528;13.316;2022-08-26T03:34:07;11.48;;;10.18;;
13989;SDS011;7069;52.528;13.316;2022-08-26T03:36:33;12.40;;;8.88;;
13989;SDS011;7069;52.528;13.316;2022-08-26T03:39:00;14.90;;;10.52;;
13989;SDS011;7069;52.528;13.316;2022-08-26T03:41:27;14.18;;;9.30;;
13989;SDS011;7069;52.528;13.316;2022-08-26T03:43:56;15.30;;;9.93;;
13989;SDS011;7069;52.528;13.316;2022-08-26T03:46:23;10.80;;;9.20;;
13989;SDS011;7069;52.528;13.316;2022-08-26T03:48:49;14.98;;;9.75;;
13989;SDS011;7069;52.528;13.316;2022-08-26T03:51:16;13.15;;;10.45;;
13989;SDS011;7069;52.528;13.316;2022-08-26T03:53:43;14.13;;;10.00;;
13989;SDS011;7069;52.528;13.316;2022-08-26T03:56:10;15.63;;;9.65;;
13989;SDS011;7069;52.528;13.316;2022-08-26T03:58:38;13.68;;;10.60;;
13989;SDS011;7069;52.528;13.316;2022-08-26T04:01:04;18.35;;;10.63;;
13989;SDS011;7069;52.528;13.316;2022-08-26T04:03:31;14.63;;;10.75;;
13989;SDS011;7069;52.528;13.316;2022-08-26T04:06:15;14.10;;;10.20;;
13989;SDS011;7069;52.528;13.316;2022-08-26T04:08:41;11.93;;;9.70;;
13989;SDS011;7069;52.528;13.316;2022-08-26T04:11:14;10.52;;;9.52;;
13989;SDS011;7069;52.528;13.316;2022-08-26T04:13:41;13.07;;;9.75;;
13989;SDS011;7069;52.528;13.316;2022-08-26T04:16:08;13.98;;;10.27;;
13989;SDS011;7069;52.528;13.316;2022-08-26T04:18:34;10.38;;;9.38;;
13989;SDS011;7069;52.528;13.316;2022-08-26T04:21:02;14.05;;;10.43;;
13989;SDS011;7069;52.528;13.316;2022-08-26T04:23:28;14.15;;;10.13;;
13989;SDS011;7069;52.528;13.316;2022-08-26T04:25:55;11.55;;;10.35;;
13989;SDS011;7069;52.528;13.316;2022-08-26T04:28:21;23.15;;;13.57;;
13989;SDS011;7069;52.528;13.316;2022-08-26T04:30:50;13.40;;;10.90;;
13989;SDS011;7069;52.528;13.316;2022-08-26T04:33:16;15.20;;;11.27;;
13989;SDS011;7069;52.528;13.316;2022-08-26T04:35:42;15.55;;;11.75;;
13989;SDS011;7069;52.528;13.316;2022-08-26T04:38:09;18.92;;;11.13;;
13989;SDS011;7069;52.528;13.316;2022-08-26T04:40:35;18.95;;;11.48;;
13989;SDS011;7069;52.528;13.316;2022-08-26T04:43:02;15.77;;;11.13;;
13989;SDS011;7069;52.528;13.316;2022-08-26T04:45:29;11.70;;;10.60;;
13989;SDS011;7069;52.528;13.316;2022-08-26T04:47:57;16.80;;;10.85;;
13989;SDS011;7069;52.528;13.316;2022-08-26T04:50:23;15.60;;;10.43;;
13989;SDS011;7069;52.528;13.316;2022-08-26T04:52:50;15.30;;;10.43;;
13989;SDS011;7069;52.528;13.316;2022-08-26T04:55:17;11.40;;;10.20;;
13989;SDS011;7069;52.528;13.316;2022-08-26T04:57:43;16.85;;;10.55;;
13989;SDS011;7069;52.528;13.316;2022-08-26T05:00:10;12.48;;;10.98;;
13989;SDS011;7069;52.528;13.316;2022-08-26T05:02:37;13.30;;;10.18;;
13989;SDS011;7069;52.528;13.316;2022-08-26T05:05:05;21.85;;;10.65;;
13989;SDS011;7069;52.528;13.316;2022-08-26T05:07:32;12.75;;;9.32;;
13989;SDS011;7069;52.528;13.316;2022-08-26T05:09:58;18.17;;;11.00;;
13989;SDS011;7069;52.528;13.316;2022-08-26T05:12:25;16.77;;;11.10;;
13989;SDS011;7069;52.528;13.316;2022-08-26T05:14:51;12.68;;;9.73;;
13989;SDS011;7069;52.528;13.316;2022-08-26T05:17:18;16.33;;;10.50;;
13989;SDS011;7069;52.528;13.316;2022-08-26T05:19:44;15.18;;;11.43;;
13989;SDS011;7069;52.528;13.316;2022-08-26T05:22:12;14.10;;;9.32;;
13989;SDS011;7069;52.528;13.316;2022-08-26T05:24:39;13.55;;;10.18;;
13989;SDS011;7069;52.528;13.316;2022-08-26T05:27:05;14.05;;;10.65;;
13989;SDS011;7069;52.528;13.316;2022-08-26T05:29:32;19.48;;;11.55;;
13989;SDS011;7069;52.528;13.316;2022-08-26T05:31:58;19.13;;;12.45;;
13989;SDS011;7069;52.528;13.316;2022-08-26T05:34:25;17.00;;;11.60;;
13989;SDS011;7069;52.528;13.316;2022-08-26T05:36:52;16.10;;;11.73;;
13989;SDS011;7069;52.528;13.316;2022-08-26T05:39:20;18.15;;;12.15;;
13989;SDS011;7069;52.528;13.316;2022-08-26T05:41:47;12.57;;;11.13;;
13989;SDS011;7069;52.528;13.316;2022-08-26T05:44:14;17.50;;;11.00;;
13989;SDS011;7069;52.528;13.316;2022-08-26T05:46:42;20.80;;;13.02;;
13989;SDS011;7069;52.528;13.316;2022-08-26T05:49:09;14.50;;;12.55;;
13989;SDS011;7069;52.528;13.316;2022-08-26T05:51:37;15.63;;;11.82;;
13989;SDS011;7069;52.528;13.316;2022-08-26T05:54:03;19.83;;;12.75;;
13989;SDS011;7069;52.528;13.316;2022-08-26T05:56:33;17.27;;;12.10;;
13989;SDS011;7069;52.528;13.316;2022-08-26T05:58:59;22.38;;;12.90;;
13989;SDS011;7069;52.528;13.316;2022-08-26T06:01:26;16.92;;;11.82;;
13989;SDS011;7069;52.528;13.316;2022-08-26T06:03:54;15.90;;;11.35;;
13989;SDS011;7069;52.528;13.316;2022-08-26T06:06:22;19.58;;;13.30;;
13989;SDS011;7069;52.528;13.316;2022-08-26T06:08:49;19.05;;;11.57;;
13989;SDS011;7069;52.528;13.316;2022-08-26T06:11:16;19.00;;;11.25;;
13989;SDS011;7069;52.528;13.316;2022-08-26T06:13:45;19.33;;;13.05;;
13989;SDS011;7069;52.528;13.316;2022-08-26T06:16:13;25.77;;;13.73;;
13989;SDS011;7069;52.528;13.316;2022-08-26T06:18:40;16.80;;;13.02;;
13989;SDS011;7069;52.528;13.316;2022-08-26T06:21:10;20.17;;;12.68;;
13989;SDS011;7069;52.528;13.316;2022-08-26T06:23:37;27.58;;;14.02;;
13989;SDS011;7069;52.528;13.316;2022-08-26T06:26:21;13.60;;;11.27;;
13989;SDS011;7069;52.528;13.316;2022-08-26T06:28:49;18.33;;;11.43;;
13989;SDS011;7069;52.528;13.316;2022-08-26T06:31:15;18.02;;;11.90;;
13989;SDS011;7069;52.528;13.316;2022-08-26T06:33:42;13.93;;;11.73;;
13989;SDS011;7069;52.528;13.316;2022-08-26T06:36:08;13.48;;;9.80;;
13989;SDS011;7069;52.528;13.316;2022-08-26T06:38:39;21.52;;;13.20;;
13989;SDS011;7069;52.528;13.316;2022-08-26T06:41:06;18.48;;;11.75;;
13989;SDS011;7069;52.528;13.316;2022-08-26T06:43:34;14.05;;;10.20;;
13989;SDS011;7069;52.528;13.316;2022-08-26T06:46:03;21.05;;;12.07;;
13989;SDS011;7069;52.528;13.316;2022-08-26T06:48:30;15.15;;;10.50;;
13989;SDS011;7069;52.528;13.316;2022-08-26T06:51:03;13.98;;;10.88;;
13989;SDS011;7069;52.528;13.316;2022-08-26T06:53:30;21.52;;;10.30;;
13989;SDS011;7069;52.528;13.316;2022-08-26T06:55:56;15.10;;;10.32;;
13989;SDS011;7069;52.528;13.316;2022-08-26T06:58:22;15.43;;;11.68;;
13989;SDS011;7069;52.528;13.316;2022-08-26T07:00:49;14.20;;;10.00;;
13989;SDS011;7069;52.528;13.316;2022-08-26T07:03:16;22.73;;;11.27;;
13989;SDS011;7069;52.528;13.316;2022-08-26T07:05:43;15.25;;;10.70;;
13989;SDS011;7069;52.528;13.316;2022-08-26T07:08:09;11.35;;;9.48;;
13989;SDS011;7069;52.528;13.316;2022-08-26T07:10:35;27.13;;;12.25;;
13989;SDS011;7069;52.528;13.316;2022-08-26T07:13:01;19.65;;;9.90;;
13989;SDS011;7069;52.528;13.316;2022-08-26T07:15:28;16.88;;;11.27;;
13989;SDS011;7069;52.528;13.316;2022-08-26T07:17:54;18.88;;;10.13;;
13989;SDS011;7069;52.528;13.316;2022-08-26T07:20:22;13.93;;;9.77;;
13989;SDS011;7069;52.528;13.316;2022-08-26T07:22:48;20.17;;;10.68;;
13989;SDS011;7069;52.528;13.316;2022-08-26T07:25:14;16.42;;;10.05;;
13989;SDS011;7069;52.528;13.316;2022-08-26T07:27:41;21.90;;;10.52;;
13989;SDS011;7069;52.528;13.316;2022-08-26T07:30:07;17.25;;;9.57;;
13989;SDS011;7069;52.528;13.316;2022-08-26T07:32:34;17.30;;;10.73;;
13989;SDS011;7069;52.528;13.316;2022-08-26T07:35:01;18.60;;;10.07;;
13989;SDS011;7069;52.528;13.316;2022-08-26T07:37:29;16.08;;;11.15;;
13989;SDS011;7069;52.528;13.316;2022-08-26T07:39:55;14.85;;;9.57;;
13989;SDS011;7069;52.528;13.316;2022-08-26T07:42:22;18.63;;;10.80;;
13989;SDS011;7069;52.528;13.316;2022-08-26T07:44:48;20.50;;;11.80;;
13989;SDS011;7069;52.528;13.316;2022-08-26T07:47:14;17.58;;;9.50;;
13989;SDS011;7069;52.528;13.316;2022-08-26T07:49:41;23.00;;;10.10;;
13989;SDS011;7069;52.528;13.316;2022-08-26T07:52:07;14.65;;;9.20;;
13989;SDS011;7069;52.528;13.316;2022-08-26T07:54:37;16.17;;;10.75;;
13989;SDS011;7069;52.528;13.316;2022-08-26T07:57:04;22.30;;;9.40;;
13989;SDS011;7069;52.528;13.316;2022-08-26T07:59:31;20.35;;;10.63;;
13989;SDS011;7069;52.528;13.316;2022-08-26T08:01:58;23.05;;;9.40;;
13989;SDS011;7069;52.528;13.316;2022-08-26T08:04:24;17.52;;;9.52;;
13989;SDS011;7069;52.528;13.316;2022-08-26T08:06:51;13.75;;;8.95;;
13989;SDS011;7069;52.528;13.316;2022-08-26T08:09:17;17.65;;;12.43;;
13989;SDS011;7069;52.528;13.316;2022-08-26T08:11:45;13.75;;;9.75;;
13989;SDS011;7069;52.528;13.316;2022-08-26T08:14:11;19.33;;;9.20;;
13989;SDS011;7069;52.528;13.316;2022-08-26T08:16:38;19.15;;;8.30;;
13989;SDS011;7069;52.528;13.316;2022-08-26T08:19:05;18.65;;;8.93;;
13989;SDS011;7069;52.528;13.316;2022-08-26T08:21:31;16.90;;;9.20;;
13989;SDS011;7069;52.528;13.316;2022-08-26T08:23:57;13.25;;;8.43;;
13989;SDS011;7069;52.528;13.316;2022-08-26T08:26:24;20.88;;;9.50;;
13989;SDS011;7069;52.528;13.316;2022-08-26T08:28:54;18.67;;;10.07;;
13989;SDS011;7069;52.528;13.316;2022-08-26T08:31:21;18.38;;;9.70;;
13989;SDS011;7069;52.528;13.316;2022-08-26T08:33:48;18.58;;;9.65;;
13989;SDS011;7069;52.528;13.316;2022-08-26T08:36:14;23.48;;;8.45;;
13989;SDS011;7069;52.528;13.316;2022-08-26T08:38:41;15.75;;;8.73;;
13989;SDS011;7069;52.528;13.316;2022-08-26T08:41:12;17.33;;;8.80;;
13989;SDS011;7069;52.528;13.316;2022-08-26T08:43:43;19.52;;;8.90;;
13989;SDS011;7069;52.528;13.316;2022-08-26T08:46:14;14.82;;;7.78;;
13989;SDS011;7069;52.528;13.316;2022-08-26T08:48:44;16.38;;;8.68;;
13989;SDS011;7069;52.528;13.316;2022-08-26T08:51:13;14.05;;;8.25;;
13989;SDS011;7069;52.528;13.316;2022-08-26T08:53:41;23.02;;;10.23;;
13989;SDS011;7069;52.528;13.316;2022-08-26T08:56:10;15.30;;;9.43;;
13989;SDS011;7069;52.528;13.316;2022-08-26T08:58:42;18.55;;;8.13;;
13989;SDS011;7069;52.528;13.316;2022-08-26T09:01:16;15.73;;;7.57;;
13989;SDS011;7069;52.528;13.316;2022-08-26T09:03:47;13.68;;;7.05;;
13989;SDS011;7069;52.528;13.316;2022-08-26T09:06:14;14.32;;;6.93;;
13989;SDS011;7069;52.528;13.316;2022-08-26T09:08:45;19.08;;;7.65;;
13989;SDS011;7069;52.528;13.316;2022-08-26T09:11:11;19.92;;;7.90;;
13989;SDS011;7069;52.528;13.316;2022-08-26T09:13:39;14.65;;;6.20;;
13989;SDS011;7069;52.528;13.316;2022-08-26T09:16:10;13.93;;;7.15;;
13989;SDS011;7069;52.528;13.316;2022-08-26T09:18:43;22.98;;;8.15;;
13989;SDS011;7069;52.528;13.316;2022-08-26T09:21:14;21.13;;;7.78;;
13989;SDS011;7069;52.528;13.316;2022-08-26T09:23:41;18.35;;;7.25;;
13989;SDS011;7069;52.528;13.316;2022-08-26T09:26:12;22.50;;;8.80;;
13989;SDS011;7069;52.528;13.316;2022-08-26T09:28:40;19.95;;;7.60;;
13989;SDS011;7069;52.528;13.316;2022-08-26T09:31:09;16.23;;;7.18;;
13989;SDS011;7069;52.528;13.316;2022-08-26T09:33:36;20.33;;;8.20;;
13989;SDS011;7069;52.528;13.316;2022-08-26T09:36:16;9.65;;;7.20;;
13989;SDS011;7069;52.528;13.316;2022-08-26T09:38:42;21.83;;;7.38;;
13989;SDS011;7069;52.528;13.316;2022-08-26T09:41:19;19.70;;;8.45;;
13989;SDS011;7069;52.528;13.316;2022-08-26T09:43:51;18.17;;;8.13;;
13989;SDS011;7069;52.528;13.316;2022-08-26T09:46:32;20.92;;;8.93;;
13989;SDS011;7069;52.528;13.316;2022-08-26T09:49:02;15.45;;;7.65;;
13989;SDS011;7069;52.528;13.316;2022-08-26T09:51:46;22.63;;;8.45;;
13989;SDS011;7069;52.528;13.316;2022-08-26T09:54:22;12.02;;;7.43;;
13989;SDS011;7069;52.528;13.316;2022-08-26T09:56:50;19.88;;;8.90;;
13989;SDS011;7069;52.528;13.316;2022-08-26T09:59:20;13.25;;;7.80;;
13989;SDS011;7069;52.528;13.316;2022-08-26T10:01:54;20.15;;;8.05;;
13989;SDS011;7069;52.528;13.316;2022-08-26T10:04:23;19.80;;;7.72;;
13989;SDS011;7069;52.528;13.316;2022-08-26T10:06:55;16.00;;;7.72;;
13989;SDS011;7069;52.528;13.316;2022-08-26T10:09:22;15.13;;;7.55;;
13989;SDS011;7069;52.528;13.316;2022-08-26T10:11:50;13.27;;;7.00;;
13989;SDS011;7069;52.528;13.316;2022-08-26T10:14:18;17.33;;;7.78;;
13989;SDS011;7069;52.528;13.316;2022-08-26T10:16:47;19.17;;;8.00;;
13989;SDS011;7069;52.528;13.316;2022-08-26T10:19:15;21.27;;;7.57;;
13989;SDS011;7069;52.528;13.316;2022-08-26T10:21:47;15.00;;;7.93;;
13989;SDS011;7069;52.528;13.316;2022-08-26T10:24:17;16.85;;;7.72;;
13989;SDS011;7069;52.528;13.316;2022-08-26T10:26:47;25.67;;;7.03;;
13989;SDS011;7069;52.528;13.316;2022-08-26T10:29:16;16.33;;;6.28;;
13989;SDS011;7069;52.528;13.316;2022-08-26T10:31:45;16.85;;;7.45;;
13989;SDS011;7069;52.528;13.316;2022-08-26T10:34:13;19.17;;;7.35;;
13989;SDS011;7069;52.528;13.316;2022-08-26T10:36:52;15.32;;;7.50;;
13989;SDS011;7069;52.528;13.316;2022-08-26T10:39:22;16.23;;;7.15;;
13989;SDS011;7069;52.528;13.316;2022-08-26T10:41:50;16.38;;;6.65;;
13989;SDS011;7069;52.528;13.316;2022-08-26T10:44:18;18.98;;;7.05;;
13989;SDS011;7069;52.528;13.316;2022-08-26T10:46:46;15.13;;;6.57;;
13989;SDS011;7069;52.528;13.316;2022-08-26T10:49:14;12.07;;;7.80;;
13989;SDS011;7069;52.528;13.316;2022-08-26T10:51:44;13.05;;;6.43;;
13989;SDS011;7069;52.528;13.316;2022-08-26T10:54:14;17.98;;;7.63;;
13989;SDS011;7069;52.528;13.316;2022-08-26T10:56:44;20.58;;;7.85;;
13989;SDS011;7069;52.528;13.316;2022-08-26T10:59:18;26.92;;;7.55;;
13989;SDS011;7069;52.528;13.316;2022-08-26T11:01:48;11.88;;;7.63;;
13989;SDS011;7069;52.528;13.316;2022-08-26T11:04:20;15.57;;;7.70;;
13989;SDS011;7069;52.528;13.316;2022-08-26T11:06:48;20.60;;;8.57;;
13989;SDS011;7069;52.528;13.316;2022-08-26T11:09:42;16.00;;;7.57;;
13989;SDS011;7069;52.528;13.316;2022-08-26T11:12:10;16.38;;;7.38;;
13989;SDS011;7069;52.528;13.316;2022-08-26T11:14:56;17.70;;;8.23;;
13989;SDS011;7069;52.528;13.316;2022-08-26T11:20:07;16.90;;;8.80;;
13989;SDS011;7069;52.528;13.316;2022-08-26T11:22:34;13.32;;;7.82;;
13989;SDS011;7069;52.528;13.316;2022-08-26T11:25:09;17.58;;;8.23;;
13989;SDS011;7069;52.528;13.316;2022-08-26T11:36:03;18.48;;;7.93;;
13989;SDS011;7069;52.528;13.316;2022-08-26T11:38:29;11.90;;;8.45;;
13989;SDS011;7069;52.528;13.316;2022-08-26T11:41:07;14.15;;;7.43;;
13989;SDS011;7069;52.528;13.316;2022-08-26T11:43:35;7.82;;;5.32;;
13989;SDS011;7069;52.528;13.316;2022-08-26T11:46:03;14.25;;;3.85;;
13989;SDS011;7069;52.528;13.316;2022-08-26T11:48:31;9.45;;;3.60;;
13989;SDS011;7069;52.528;13.316;2022-08-26T11:50:59;9.15;;;3.53;;
13989;SDS011;7069;52.528;13.316;2022-08-26T11:53:28;7.93;;;2.92;;
13989;SDS011;7069;52.528;13.316;2022-08-26T11:55:56;11.40;;;3.75;;
13989;SDS011;7069;52.528;13.316;2022-08-26T11:58:23;7.00;;;3.58;;
13989;SDS011;7069;52.528;13.316;2022-08-26T12:00:51;8.55;;;3.97;;
13989;SDS011;7069;52.528;13.316;2022-08-26T12:03:21;7.63;;;3.45;;
13989;SDS011;7069;52.528;13.316;2022-08-26T12:05:49;7.85;;;3.42;;
13989;SDS011;7069;52.528;13.316;2022-08-26T12:08:17;8.93;;;4.03;;
13989;SDS011;7069;52.528;13.316;2022-08-26T12:10:46;5.82;;;4.30;;
13989;SDS011;7069;52.528;13.316;2022-08-26T12:13:20;10.35;;;4.10;;
13989;SDS011;7069;52.528;13.316;2022-08-26T12:15:50;5.65;;;3.25;;
13989;SDS011;7069;52.528;13.316;2022-08-26T12:18:18;5.00;;;4.13;;
13989;SDS011;7069;52.528;13.316;2022-08-26T12:20:44;5.30;;;4.55;;
13989;SDS011;7069;52.528;13.316;2022-08-26T12:23:24;6.30;;;4.72;;
13989;SDS011;7069;52.528;13.316;2022-08-26T12:26:00;9.82;;;5.05;;
13989;SDS011;7069;52.528;13.316;2022-08-26T12:28:28;13.02;;;4.93;;
13989;SDS011;7069;52.528;13.316;2022-08-26T12:30:59;7.60;;;4.15;;
13989;SDS011;7069;52.528;13.316;2022-08-26T12:33:25;7.35;;;4.68;;
13989;SDS011;7069;52.528;13.316;2022-08-26T12:35:52;7.57;;;4.55;;
13989;SDS011;7069;52.528;13.316;2022-08-26T12:38:19;9.52;;;4.47;;
13989;SDS011;7069;52.528;13.316;2022-08-26T12:40:45;4.30;;;4.00;;
13989;SDS011;7069;52.528;13.316;2022-08-26T12:46:01;5.07;;;3.95;;
13989;SDS011;7069;52.528;13.316;2022-08-26T12:48:29;5.13;;;4.18;;
13989;SDS011;7069;52.528;13.316;2022-08-26T12:50:55;4.80;;;3.97;;
13989;SDS011;7069;52.528;13.316;2022-08-26T12:53:23;5.70;;;4.13;;
13989;SDS011;7069;52.528;13.316;2022-08-26T12:55:50;5.03;;;4.43;;
13989;SDS011;7069;52.528;13.316;2022-08-26T12:58:22;5.82;;;4.40;;
13989;SDS011;7069;52.528;13.316;2022-08-26T13:00:49;5.07;;;4.55;;
13989;SDS011;7069;52.528;13.316;2022-08-26T13:03:36;10.02;;;5.10;;
13989;SDS011;7069;52.528;13.316;2022-08-26T13:08:50;9.93;;;5.75;;
13989;SDS011;7069;52.528;13.316;2022-08-26T13:11:18;7.00;;;5.85;;
13989;SDS011;7069;52.528;13.316;2022-08-26T13:13:44;9.43;;;6.05;;
13989;SDS011;7069;52.528;13.316;2022-08-26T13:16:11;7.97;;;5.22;;
13989;SDS011;7069;52.528;13.316;2022-08-26T13:18:39;8.82;;;5.07;;
13989;SDS011;7069;52.528;13.316;2022-08-26T13:21:10;10.52;;;5.47;;
13989;SDS011;7069;52.528;13.316;2022-08-26T13:23:37;9.45;;;6.00;;
13989;SDS011;7069;52.528;13.316;2022-08-26T13:26:03;8.23;;;6.32;;
13989;SDS011;7069;52.528;13.316;2022-08-26T13:28:30;10.55;;;6.30;;
13989;SDS011;7069;52.528;13.316;2022-08-26T13:30:56;10.95;;;7.07;;
13989;SDS011;7069;52.528;13.316;2022-08-26T13:33:22;6.15;;;5.60;;
13989;SDS011;7069;52.528;13.316;2022-08-26T13:35:50;10.07;;;7.03;;
13989;SDS011;7069;52.528;13.316;2022-08-26T13:38:16;15.38;;;6.60;;
13989;SDS011;7069;52.528;13.316;2022-08-26T13:40:43;10.15;;;6.07;;
13989;SDS011;7069;52.528;13.316;2022-08-26T13:43:10;10.07;;;6.30;;
13989;SDS011;7069;52.528;13.316;2022-08-26T13:45:36;12.02;;;6.82;;
13989;SDS011;7069;52.528;13.316;2022-08-26T13:48:03;7.93;;;7.20;;
13989;SDS011;7069;52.528;13.316;2022-08-26T13:50:29;11.65;;;7.60;;
13989;SDS011;7069;52.528;13.316;2022-08-26T13:52:57;8.10;;;7.40;;
13989;SDS011;7069;52.528;13.316;2022-08-26T13:55:23;9.52;;;7.90;;
13989;SDS011;7069;52.528;13.316;2022-08-26T13:57:51;10.35;;;8.75;;
13989;SDS011;7069;52.528;13.316;2022-08-26T14:00:18;9.60;;;8.70;;
13989;SDS011;7069;52.528;13.316;2022-08-26T14:02:44;12.88;;;9.00;;
13989;SDS011;7069;52.528;13.316;2022-08-26T14:05:11;12.15;;;8.45;;
13989;SDS011;7069;52.528;13.316;2022-08-26T14:07:37;9.60;;;8.00;;
13989;SDS011;7069;52.528;13.316;2022-08-26T14:10:05;10.02;;;8.63;;
13989;SDS011;7069;52.528;13.316;2022-08-26T14:12:32;13.45;;;9.00;;
13989;SDS011;7069;52.528;13.316;2022-08-26T14:14:58;14.00;;;10.85;;
13989;SDS011;7069;52.528;13.316;2022-08-26T14:17:25;13.50;;;11.38;;
13989;SDS011;7069;52.528;13.316;2022-08-26T14:19:51;14.55;;;10.90;;
13989;SDS011;7069;52.528;13.316;2022-08-26T14:22:18;14.45;;;10.57;;
13989;SDS011;7069;52.528;13.316;2022-08-26T14:24:45;12.57;;;10.60;;
13989;SDS011;7069;52.528;13.316;2022-08-26T14:27:13;11.25;;;10.20;;
13989;SDS011;7069;52.528;13.316;2022-08-26T14:29:39;16.02;;;10.82;;
13989;SDS011;7069;52.528;13.316;2022-08-26T14:32:06;11.95;;;10.05;;
13989;SDS011;7069;52.528;13.316;2022-08-26T14:34:35;17.48;;;9.85;;
13989;SDS011;7069;52.528;13.316;2022-08-26T14:37:02;10.73;;;9.57;;
13989;SDS011;7069;52.528;13.316;2022-08-26T14:39:30;11.77;;;10.25;;
13989;SDS011;7069;52.528;13.316;2022-08-26T14:41:57;10.55;;;9.60;;
13989;SDS011;7069;52.528;13.316;2022-08-26T14:44:26;14.63;;;10.25;;
13989;SDS011;7069;52.528;13.316;2022-08-26T14:46:53;9.13;;;8.30;;
13989;SDS011;7069;52.528;13.316;2022-08-26T14:49:20;9.07;;;8.27;;
13989;SDS011;7069;52.528;13.316;2022-08-26T14:51:47;10.85;;;8.50;;
13989;SDS011;7069;52.528;13.316;2022-08-26T14:54:13;9.80;;;8.88;;
13989;SDS011;7069;52.528;13.316;2022-08-26T14:56:41;12.05;;;9.07;;